sensor_id;sensor_type;location;lat;lon;timestamp;P1;durP1;ratioP1;P2;durP2;ratioP2
74523;SDS011;63074;44.696;10.358;2023-06-26T00:01:00;4.18;;;3.00;;
74523;SDS011;63074;44.696;10.358;2023-06-26T00:03:26;5.78;;;2.70;;
74523;SDS011;63074;44.696;10.358;2023-06-26T00:05:54;4.00;;;2.63;;
74523;SDS011;63074;44.696;10.358;2023-06-26T00:08:23;4.20;;;2.95;;
74523;SDS011;63074;44.696;10.358;2023-06-26T00:10:49;4.30;;;3.30;;
74523;SDS011;63074;44.696;10.358;2023-06-26T00:13:16;4.45;;;2.85;;
74523;SDS011;63074;44.696;10.358;2023-06-26T00:15:42;5.00;;;3.20;;
74523;SDS011;63074;44.696;10.358;2023-06-26T00:18:08;6.03;;;2.80;;
74523;SDS011;63074;44.696;10.358;2023-06-26T00:20:35;6.13;;;3.17;;
74523;SDS011;63074;44.696;10.358;2023-06-26T00:23:01;4.70;;;2.97;;
74523;SDS011;63074;44.696;10.358;2023-06-26T00:25:32;4.07;;;2.63;;
74523;SDS011;63074;44.696;10.358;2023-06-26T00:27:58;6.72;;;3.10;;
74523;SDS011;63074;44.696;10.358;2023-06-26T00:30:24;5.78;;;3.35;;
74523;SDS011;63074;44.696;10.358;2023-06-26T00:32:50;4.93;;;3.15;;
74523;SDS011;63074;44.696;10.358;2023-06-26T00:35:17;5.70;;;2.63;;
74523;SDS011;63074;44.696;10.358;2023-06-26T00:37:43;4.40;;;2.75;;
74523;SDS011;63074;44.696;10.358;2023-06-26T00:40:09;4.65;;;3.05;;
74523;SDS011;63074;44.696;10.358;2023-06-26T00:42:35;4.95;;;3.08;;
74523;SDS011;63074;44.696;10.358;2023-06-26T00:45:02;6.10;;;2.75;;
74523;SDS011;63074;44.696;10.358;2023-06-26T00:47:28;3.75;;;2.78;;
74523;SDS011;63074;44.696;10.358;2023-06-26T00:49:55;3.88;;;2.50;;
74523;SDS011;63074;44.696;10.358;2023-06-26T00:52:23;4.63;;;2.78;;
74523;SDS011;63074;44.696;10.358;2023-06-26T00:54:50;4.28;;;2.50;;
74523;SDS011;63074;44.696;10.358;2023-06-26T00:57:17;3.92;;;2.47;;
74523;SDS011;63074;44.696;10.358;2023-06-26T00:59:43;4.30;;;2.45;;
74523;SDS011;63074;44.696;10.358;2023-06-26T01:02:09;4.45;;;2.78;;
74523;SDS011;63074;44.696;10.358;2023-06-26T01:04:36;4.75;;;2.75;;
74523;SDS011;63074;44.696;10.358;2023-06-26T01:07:02;3.92;;;2.78;;
74523;SDS011;63074;44.696;10.358;2023-06-26T01:09:29;3.72;;;2.67;;
74523;SDS011;63074;44.696;10.358;2023-06-26T01:11:56;6.35;;;2.80;;
74523;SDS011;63074;44.696;10.358;2023-06-26T01:14:23;4.55;;;2.75;;
74523;SDS011;63074;44.696;10.358;2023-06-26T01:16:49;4.38;;;3.05;;
74523;SDS011;63074;44.696;10.358;2023-06-26T01:19:22;3.72;;;2.33;;
74523;SDS011;63074;44.696;10.358;2023-06-26T01:27:36;4.93;;;2.40;;
74523;SDS011;63074;44.696;10.358;2023-06-26T01:30:04;3.67;;;2.38;;
74523;SDS011;63074;44.696;10.358;2023-06-26T01:34:59;3.80;;;2.80;;
74523;SDS011;63074;44.696;10.358;2023-06-26T01:37:26;6.60;;;2.90;;
74523;SDS011;63074;44.696;10.358;2023-06-26T01:39:53;4.80;;;2.83;;
74523;SDS011;63074;44.696;10.358;2023-06-26T01:42:19;4.82;;;2.75;;
74523;SDS011;63074;44.696;10.358;2023-06-26T01:44:45;4.22;;;2.97;;
74523;SDS011;63074;44.696;10.358;2023-06-26T01:47:14;3.90;;;2.92;;
74523;SDS011;63074;44.696;10.358;2023-06-26T01:52:27;4.55;;;2.60;;
74523;SDS011;63074;44.696;10.358;2023-06-26T01:55:05;3.92;;;2.67;;
74523;SDS011;63074;44.696;10.358;2023-06-26T01:57:52;5.35;;;3.45;;
74523;SDS011;63074;44.696;10.358;2023-06-26T02:00:20;6.65;;;3.25;;
74523;SDS011;63074;44.696;10.358;2023-06-26T02:02:48;3.92;;;3.03;;
74523;SDS011;63074;44.696;10.358;2023-06-26T02:05:14;5.90;;;2.90;;
74523;SDS011;63074;44.696;10.358;2023-06-26T02:07:41;4.70;;;2.70;;
74523;SDS011;63074;44.696;10.358;2023-06-26T02:10:08;4.65;;;2.72;;
74523;SDS011;63074;44.696;10.358;2023-06-26T02:12:36;3.40;;;2.60;;
74523;SDS011;63074;44.696;10.358;2023-06-26T02:15:02;4.25;;;2.58;;
74523;SDS011;63074;44.696;10.358;2023-06-26T02:17:29;4.95;;;3.20;;
74523;SDS011;63074;44.696;10.358;2023-06-26T02:19:56;5.18;;;2.95;;
74523;SDS011;63074;44.696;10.358;2023-06-26T02:22:22;5.45;;;2.72;;
74523;SDS011;63074;44.696;10.358;2023-06-26T02:24:48;6.13;;;2.97;;
74523;SDS011;63074;44.696;10.358;2023-06-26T02:27:14;5.22;;;3.03;;
74523;SDS011;63074;44.696;10.358;2023-06-26T02:29:41;4.45;;;2.60;;
74523;SDS011;63074;44.696;10.358;2023-06-26T02:32:07;4.40;;;2.78;;
74523;SDS011;63074;44.696;10.358;2023-06-26T02:37:00;6.38;;;2.63;;
74523;SDS011;63074;44.696;10.358;2023-06-26T02:39:26;3.60;;;2.75;;
74523;SDS011;63074;44.696;10.358;2023-06-26T02:41:53;3.60;;;2.17;;
74523;SDS011;63074;44.696;10.358;2023-06-26T02:44:19;4.20;;;2.13;;
74523;SDS011;63074;44.696;10.358;2023-06-26T02:46:46;4.13;;;2.90;;
74523;SDS011;63074;44.696;10.358;2023-06-26T02:49:12;4.20;;;2.95;;
74523;SDS011;63074;44.696;10.358;2023-06-26T02:51:38;4.28;;;2.85;;
74523;SDS011;63074;44.696;10.358;2023-06-26T02:54:05;5.68;;;2.88;;
74523;SDS011;63074;44.696;10.358;2023-06-26T02:56:31;3.60;;;2.72;;
74523;SDS011;63074;44.696;10.358;2023-06-26T02:58:57;3.95;;;2.83;;
74523;SDS011;63074;44.696;10.358;2023-06-26T03:01:24;5.40;;;2.83;;
74523;SDS011;63074;44.696;10.358;2023-06-26T03:03:50;4.00;;;2.97;;
74523;SDS011;63074;44.696;10.358;2023-06-26T03:06:16;4.90;;;2.88;;
74523;SDS011;63074;44.696;10.358;2023-06-26T03:08:42;4.57;;;2.63;;
74523;SDS011;63074;44.696;10.358;2023-06-26T03:11:09;4.13;;;2.63;;
74523;SDS011;63074;44.696;10.358;2023-06-26T03:13:35;4.57;;;2.35;;
74523;SDS011;63074;44.696;10.358;2023-06-26T03:16:03;5.25;;;2.53;;
74523;SDS011;63074;44.696;10.358;2023-06-26T03:18:29;4.30;;;2.83;;
74523;SDS011;63074;44.696;10.358;2023-06-26T03:20:56;4.35;;;2.28;;
74523;SDS011;63074;44.696;10.358;2023-06-26T03:23:22;3.85;;;2.70;;
74523;SDS011;63074;44.696;10.358;2023-06-26T03:25:50;4.68;;;3.03;;
74523;SDS011;63074;44.696;10.358;2023-06-26T03:28:16;4.45;;;2.67;;
74523;SDS011;63074;44.696;10.358;2023-06-26T03:30:43;4.03;;;2.60;;
74523;SDS011;63074;44.696;10.358;2023-06-26T03:33:09;5.05;;;2.53;;
74523;SDS011;63074;44.696;10.358;2023-06-26T03:35:35;5.28;;;2.80;;
74523;SDS011;63074;44.696;10.358;2023-06-26T03:38:03;5.97;;;3.17;;
74523;SDS011;63074;44.696;10.358;2023-06-26T03:40:30;4.63;;;2.90;;
74523;SDS011;63074;44.696;10.358;2023-06-26T03:42:56;4.30;;;3.47;;
74523;SDS011;63074;44.696;10.358;2023-06-26T03:45:22;5.22;;;2.97;;
74523;SDS011;63074;44.696;10.358;2023-06-26T03:47:48;4.90;;;3.20;;
74523;SDS011;63074;44.696;10.358;2023-06-26T03:50:18;4.18;;;2.88;;
74523;SDS011;63074;44.696;10.358;2023-06-26T03:52:44;5.13;;;2.60;;
74523;SDS011;63074;44.696;10.358;2023-06-26T03:55:11;3.97;;;2.60;;
74523;SDS011;63074;44.696;10.358;2023-06-26T03:57:37;4.78;;;2.92;;
74523;SDS011;63074;44.696;10.358;2023-06-26T04:00:03;5.15;;;2.88;;
74523;SDS011;63074;44.696;10.358;2023-06-26T04:04:59;4.45;;;2.95;;
74523;SDS011;63074;44.696;10.358;2023-06-26T04:07:25;5.45;;;3.05;;
74523;SDS011;63074;44.696;10.358;2023-06-26T04:09:52;3.85;;;2.80;;
74523;SDS011;63074;44.696;10.358;2023-06-26T04:12:18;4.45;;;3.13;;
74523;SDS011;63074;44.696;10.358;2023-06-26T04:14:44;3.60;;;2.42;;
74523;SDS011;63074;44.696;10.358;2023-06-26T04:17:10;3.85;;;2.53;;
74523;SDS011;63074;44.696;10.358;2023-06-26T04:19:37;4.15;;;2.60;;
74523;SDS011;63074;44.696;10.358;2023-06-26T04:22:03;4.63;;;2.90;;
74523;SDS011;63074;44.696;10.358;2023-06-26T04:24:29;4.68;;;2.92;;
74523;SDS011;63074;44.696;10.358;2023-06-26T04:26:55;6.22;;;3.25;;
74523;SDS011;63074;44.696;10.358;2023-06-26T04:29:28;5.45;;;2.95;;
74523;SDS011;63074;44.696;10.358;2023-06-26T04:31:54;6.60;;;3.17;;
74523;SDS011;63074;44.696;10.358;2023-06-26T04:34:26;5.78;;;3.30;;
74523;SDS011;63074;44.696;10.358;2023-06-26T04:36:53;5.25;;;3.33;;
74523;SDS011;63074;44.696;10.358;2023-06-26T04:39:19;5.32;;;3.42;;
74523;SDS011;63074;44.696;10.358;2023-06-26T04:41:46;5.95;;;3.47;;
74523;SDS011;63074;44.696;10.358;2023-06-26T04:44:12;7.00;;;3.30;;
74523;SDS011;63074;44.696;10.358;2023-06-26T04:46:38;5.88;;;3.03;;
74523;SDS011;63074;44.696;10.358;2023-06-26T04:49:07;5.47;;;2.90;;
74523;SDS011;63074;44.696;10.358;2023-06-26T04:54:00;6.28;;;3.10;;
74523;SDS011;63074;44.696;10.358;2023-06-26T04:56:26;7.50;;;2.97;;
74523;SDS011;63074;44.696;10.358;2023-06-26T04:58:52;7.63;;;3.58;;
74523;SDS011;63074;44.696;10.358;2023-06-26T05:01:18;5.72;;;3.53;;
74523;SDS011;63074;44.696;10.358;2023-06-26T05:03:44;6.35;;;3.38;;
74523;SDS011;63074;44.696;10.358;2023-06-26T05:06:12;7.75;;;3.25;;
74523;SDS011;63074;44.696;10.358;2023-06-26T05:08:38;10.25;;;3.70;;
74523;SDS011;63074;44.696;10.358;2023-06-26T05:11:05;10.00;;;4.10;;
74523;SDS011;63074;44.696;10.358;2023-06-26T05:13:31;6.90;;;3.20;;
74523;SDS011;63074;44.696;10.358;2023-06-26T05:15:57;7.97;;;3.50;;
74523;SDS011;63074;44.696;10.358;2023-06-26T05:18:24;5.97;;;3.80;;
74523;SDS011;63074;44.696;10.358;2023-06-26T05:20:50;6.00;;;3.15;;
74523;SDS011;63074;44.696;10.358;2023-06-26T05:23:16;6.45;;;3.90;;
74523;SDS011;63074;44.696;10.358;2023-06-26T05:25:43;12.35;;;4.00;;
74523;SDS011;63074;44.696;10.358;2023-06-26T05:28:10;10.07;;;3.97;;
74523;SDS011;63074;44.696;10.358;2023-06-26T05:30:37;8.27;;;4.18;;
74523;SDS011;63074;44.696;10.358;2023-06-26T05:33:03;8.30;;;4.05;;
74523;SDS011;63074;44.696;10.358;2023-06-26T05:35:31;6.32;;;4.18;;
74523;SDS011;63074;44.696;10.358;2023-06-26T05:37:58;7.60;;;4.05;;
74523;SDS011;63074;44.696;10.358;2023-06-26T05:40:25;6.32;;;4.10;;
74523;SDS011;63074;44.696;10.358;2023-06-26T05:42:51;9.98;;;4.25;;
74523;SDS011;63074;44.696;10.358;2023-06-26T05:45:18;7.57;;;4.05;;
74523;SDS011;63074;44.696;10.358;2023-06-26T05:47:44;9.35;;;4.30;;
74523;SDS011;63074;44.696;10.358;2023-06-26T05:50:11;8.05;;;4.18;;
74523;SDS011;63074;44.696;10.358;2023-06-26T05:52:38;8.63;;;4.57;;
74523;SDS011;63074;44.696;10.358;2023-06-26T05:55:05;7.55;;;4.95;;
74523;SDS011;63074;44.696;10.358;2023-06-26T05:57:31;6.47;;;3.92;;
74523;SDS011;63074;44.696;10.358;2023-06-26T05:59:58;6.75;;;4.07;;
74523;SDS011;63074;44.696;10.358;2023-06-26T06:02:24;8.15;;;4.13;;
74523;SDS011;63074;44.696;10.358;2023-06-26T06:04:50;6.38;;;4.20;;
74523;SDS011;63074;44.696;10.358;2023-06-26T06:07:16;10.15;;;3.75;;
74523;SDS011;63074;44.696;10.358;2023-06-26T06:09:44;6.70;;;3.55;;
74523;SDS011;63074;44.696;10.358;2023-06-26T06:12:11;5.53;;;3.22;;
74523;SDS011;63074;44.696;10.358;2023-06-26T06:14:39;5.25;;;3.55;;
74523;SDS011;63074;44.696;10.358;2023-06-26T06:17:05;5.40;;;3.85;;
74523;SDS011;63074;44.696;10.358;2023-06-26T06:19:31;4.65;;;3.22;;
74523;SDS011;63074;44.696;10.358;2023-06-26T06:21:57;6.55;;;3.72;;
74523;SDS011;63074;44.696;10.358;2023-06-26T06:24:23;7.13;;;3.83;;
74523;SDS011;63074;44.696;10.358;2023-06-26T06:26:50;5.78;;;3.42;;
74523;SDS011;63074;44.696;10.358;2023-06-26T06:29:16;8.07;;;4.20;;
74523;SDS011;63074;44.696;10.358;2023-06-26T06:31:44;5.18;;;3.10;;
74523;SDS011;63074;44.696;10.358;2023-06-26T06:34:10;5.78;;;2.97;;
74523;SDS011;63074;44.696;10.358;2023-06-26T06:36:36;4.82;;;2.83;;
74523;SDS011;63074;44.696;10.358;2023-06-26T06:39:03;5.13;;;3.17;;
74523;SDS011;63074;44.696;10.358;2023-06-26T06:41:29;7.55;;;3.42;;
74523;SDS011;63074;44.696;10.358;2023-06-26T06:43:55;5.75;;;2.70;;
74523;SDS011;63074;44.696;10.358;2023-06-26T06:46:21;6.15;;;3.30;;
74523;SDS011;63074;44.696;10.358;2023-06-26T06:48:48;5.40;;;3.40;;
74523;SDS011;63074;44.696;10.358;2023-06-26T06:51:14;4.05;;;3.08;;
74523;SDS011;63074;44.696;10.358;2023-06-26T06:53:40;5.38;;;3.10;;
74523;SDS011;63074;44.696;10.358;2023-06-26T06:56:06;4.35;;;3.05;;
74523;SDS011;63074;44.696;10.358;2023-06-26T06:58:32;7.32;;;3.05;;
74523;SDS011;63074;44.696;10.358;2023-06-26T07:00:59;3.85;;;2.50;;
74523;SDS011;63074;44.696;10.358;2023-06-26T07:03:29;6.40;;;3.10;;
74523;SDS011;63074;44.696;10.358;2023-06-26T07:05:55;4.72;;;3.20;;
74523;SDS011;63074;44.696;10.358;2023-06-26T07:08:21;4.70;;;3.25;;
74523;SDS011;63074;44.696;10.358;2023-06-26T07:10:47;5.45;;;3.22;;
74523;SDS011;63074;44.696;10.358;2023-06-26T07:13:14;10.13;;;3.30;;
74523;SDS011;63074;44.696;10.358;2023-06-26T07:15:40;4.70;;;3.05;;
74523;SDS011;63074;44.696;10.358;2023-06-26T07:18:06;5.40;;;3.17;;
74523;SDS011;63074;44.696;10.358;2023-06-26T07:20:32;8.23;;;3.22;;
74523;SDS011;63074;44.696;10.358;2023-06-26T07:22:58;4.57;;;2.92;;
74523;SDS011;63074;44.696;10.358;2023-06-26T07:25:24;6.90;;;2.97;;
74523;SDS011;63074;44.696;10.358;2023-06-26T07:27:51;5.90;;;3.08;;
74523;SDS011;63074;44.696;10.358;2023-06-26T07:30:17;5.22;;;3.20;;
74523;SDS011;63074;44.696;10.358;2023-06-26T07:32:44;5.80;;;3.17;;
74523;SDS011;63074;44.696;10.358;2023-06-26T07:35:10;7.90;;;3.67;;
74523;SDS011;63074;44.696;10.358;2023-06-26T07:37:37;6.47;;;3.20;;
74523;SDS011;63074;44.696;10.358;2023-06-26T07:40:03;5.00;;;3.25;;
74523;SDS011;63074;44.696;10.358;2023-06-26T07:42:30;7.38;;;3.05;;
74523;SDS011;63074;44.696;10.358;2023-06-26T07:44:56;4.80;;;2.88;;
74523;SDS011;63074;44.696;10.358;2023-06-26T07:47:22;3.78;;;3.13;;
74523;SDS011;63074;44.696;10.358;2023-06-26T07:49:48;9.30;;;3.40;;
74523;SDS011;63074;44.696;10.358;2023-06-26T07:52:15;4.63;;;2.97;;
74523;SDS011;63074;44.696;10.358;2023-06-26T07:54:41;3.90;;;3.03;;
74523;SDS011;63074;44.696;10.358;2023-06-26T07:57:07;6.28;;;3.40;;
74523;SDS011;63074;44.696;10.358;2023-06-26T08:01:59;4.75;;;2.92;;
74523;SDS011;63074;44.696;10.358;2023-06-26T08:04:27;5.53;;;3.47;;
74523;SDS011;63074;44.696;10.358;2023-06-26T08:06:56;4.53;;;2.97;;
74523;SDS011;63074;44.696;10.358;2023-06-26T08:09:24;4.88;;;3.05;;
74523;SDS011;63074;44.696;10.358;2023-06-26T08:11:54;6.90;;;2.85;;
74523;SDS011;63074;44.696;10.358;2023-06-26T08:14:21;5.05;;;3.38;;
74523;SDS011;63074;44.696;10.358;2023-06-26T08:16:47;5.85;;;3.03;;
74523;SDS011;63074;44.696;10.358;2023-06-26T08:19:14;6.75;;;3.20;;
74523;SDS011;63074;44.696;10.358;2023-06-26T08:21:42;5.05;;;2.92;;
74523;SDS011;63074;44.696;10.358;2023-06-26T08:24:09;4.88;;;3.13;;
74523;SDS011;63074;44.696;10.358;2023-06-26T08:26:36;6.05;;;3.00;;
74523;SDS011;63074;44.696;10.358;2023-06-26T08:29:03;5.13;;;2.72;;
74523;SDS011;63074;44.696;10.358;2023-06-26T08:34:02;6.53;;;2.92;;
74523;SDS011;63074;44.696;10.358;2023-06-26T08:36:29;5.25;;;3.03;;
74523;SDS011;63074;44.696;10.358;2023-06-26T08:38:55;3.92;;;2.13;;
74523;SDS011;63074;44.696;10.358;2023-06-26T08:41:21;4.47;;;2.67;;
74523;SDS011;63074;44.696;10.358;2023-06-26T08:43:48;4.15;;;2.78;;
74523;SDS011;63074;44.696;10.358;2023-06-26T08:46:16;5.20;;;2.40;;
74523;SDS011;63074;44.696;10.358;2023-06-26T08:48:43;4.63;;;2.13;;
74523;SDS011;63074;44.696;10.358;2023-06-26T08:51:19;4.15;;;2.63;;
74523;SDS011;63074;44.696;10.358;2023-06-26T08:53:52;4.47;;;2.83;;
74523;SDS011;63074;44.696;10.358;2023-06-26T08:56:25;3.72;;;2.30;;
74523;SDS011;63074;44.696;10.358;2023-06-26T08:58:57;5.07;;;2.90;;
74523;SDS011;63074;44.696;10.358;2023-06-26T09:01:24;4.90;;;2.85;;
74523;SDS011;63074;44.696;10.358;2023-06-26T09:03:51;6.75;;;2.83;;
74523;SDS011;63074;44.696;10.358;2023-06-26T09:06:17;5.57;;;2.78;;
74523;SDS011;63074;44.696;10.358;2023-06-26T09:08:44;3.63;;;2.30;;
74523;SDS011;63074;44.696;10.358;2023-06-26T09:11:10;5.30;;;3.13;;
74523;SDS011;63074;44.696;10.358;2023-06-26T09:13:36;4.80;;;2.55;;
74523;SDS011;63074;44.696;10.358;2023-06-26T09:16:08;3.97;;;2.17;;
74523;SDS011;63074;44.696;10.358;2023-06-26T09:21:00;3.50;;;2.80;;
74523;SDS011;63074;44.696;10.358;2023-06-26T09:23:33;4.75;;;2.55;;
74523;SDS011;63074;44.696;10.358;2023-06-26T09:25:59;5.35;;;2.72;;
74523;SDS011;63074;44.696;10.358;2023-06-26T09:28:29;5.80;;;2.90;;
74523;SDS011;63074;44.696;10.358;2023-06-26T09:31:02;4.30;;;2.50;;
74523;SDS011;63074;44.696;10.358;2023-06-26T09:33:32;4.50;;;2.75;;
74523;SDS011;63074;44.696;10.358;2023-06-26T09:35:58;4.68;;;3.05;;
74523;SDS011;63074;44.696;10.358;2023-06-26T09:38:25;4.18;;;2.22;;
74523;SDS011;63074;44.696;10.358;2023-06-26T09:40:51;3.45;;;2.22;;
74523;SDS011;63074;44.696;10.358;2023-06-26T09:43:18;4.28;;;2.28;;
74523;SDS011;63074;44.696;10.358;2023-06-26T09:45:44;4.80;;;2.97;;
74523;SDS011;63074;44.696;10.358;2023-06-26T09:48:11;4.70;;;2.55;;
74523;SDS011;63074;44.696;10.358;2023-06-26T09:53:07;3.35;;;2.20;;
74523;SDS011;63074;44.696;10.358;2023-06-26T09:58:00;4.95;;;3.10;;
74523;SDS011;63074;44.696;10.358;2023-06-26T10:00:29;5.38;;;3.35;;
74523;SDS011;63074;44.696;10.358;2023-06-26T10:02:56;4.93;;;2.88;;
74523;SDS011;63074;44.696;10.358;2023-06-26T10:05:23;4.15;;;2.72;;
74523;SDS011;63074;44.696;10.358;2023-06-26T10:07:51;11.27;;;3.55;;
74523;SDS011;63074;44.696;10.358;2023-06-26T10:10:19;6.75;;;2.60;;
74523;SDS011;63074;44.696;10.358;2023-06-26T10:12:50;5.47;;;3.38;;
74523;SDS011;63074;44.696;10.358;2023-06-26T10:15:20;6.35;;;3.13;;
74523;SDS011;63074;44.696;10.358;2023-06-26T10:17:49;4.55;;;2.90;;
74523;SDS011;63074;44.696;10.358;2023-06-26T10:20:17;4.57;;;2.17;;
74523;SDS011;63074;44.696;10.358;2023-06-26T10:22:44;3.95;;;2.72;;
74523;SDS011;63074;44.696;10.358;2023-06-26T10:25:12;3.83;;;2.08;;
74523;SDS011;63074;44.696;10.358;2023-06-26T10:27:45;3.38;;;2.10;;
74523;SDS011;63074;44.696;10.358;2023-06-26T10:30:17;5.40;;;2.58;;
74523;SDS011;63074;44.696;10.358;2023-06-26T10:32:48;4.75;;;2.53;;
74523;SDS011;63074;44.696;10.358;2023-06-26T10:35:15;4.80;;;2.33;;
74523;SDS011;63074;44.696;10.358;2023-06-26T10:37:45;4.60;;;2.42;;
74523;SDS011;63074;44.696;10.358;2023-06-26T10:40:13;3.58;;;2.38;;
74523;SDS011;63074;44.696;10.358;2023-06-26T10:42:46;4.13;;;2.80;;
74523;SDS011;63074;44.696;10.358;2023-06-26T10:45:16;4.18;;;2.53;;
74523;SDS011;63074;44.696;10.358;2023-06-26T10:47:46;4.95;;;2.85;;
74523;SDS011;63074;44.696;10.358;2023-06-26T10:55:56;3.50;;;2.33;;
74523;SDS011;63074;44.696;10.358;2023-06-26T11:03:40;4.28;;;1.95;;
74523;SDS011;63074;44.696;10.358;2023-06-26T11:06:12;3.35;;;1.80;;
74523;SDS011;63074;44.696;10.358;2023-06-26T11:08:50;4.85;;;2.20;;
74523;SDS011;63074;44.696;10.358;2023-06-26T11:11:20;5.57;;;2.75;;
74523;SDS011;63074;44.696;10.358;2023-06-26T11:13:47;4.07;;;1.98;;
74523;SDS011;63074;44.696;10.358;2023-06-26T11:16:14;4.47;;;2.58;;
74523;SDS011;63074;44.696;10.358;2023-06-26T11:18:40;3.42;;;2.28;;
74523;SDS011;63074;44.696;10.358;2023-06-26T11:21:07;4.05;;;2.38;;
74523;SDS011;63074;44.696;10.358;2023-06-26T11:23:48;3.72;;;2.90;;
74523;SDS011;63074;44.696;10.358;2023-06-26T11:28:45;3.67;;;2.58;;
74523;SDS011;63074;44.696;10.358;2023-06-26T11:33:56;3.40;;;2.00;;
74523;SDS011;63074;44.696;10.358;2023-06-26T11:36:28;4.28;;;2.38;;
74523;SDS011;63074;44.696;10.358;2023-06-26T11:41:22;3.38;;;2.33;;
74523;SDS011;63074;44.696;10.358;2023-06-26T11:43:50;3.50;;;2.05;;
74523;SDS011;63074;44.696;10.358;2023-06-26T11:46:18;3.45;;;2.30;;
74523;SDS011;63074;44.696;10.358;2023-06-26T11:48:46;4.55;;;2.38;;
74523;SDS011;63074;44.696;10.358;2023-06-26T11:51:13;3.55;;;2.22;;
74523;SDS011;63074;44.696;10.358;2023-06-26T11:53:43;2.55;;;2.03;;
74523;SDS011;63074;44.696;10.358;2023-06-26T11:56:11;4.38;;;2.35;;
74523;SDS011;63074;44.696;10.358;2023-06-26T12:01:34;3.40;;;2.35;;
74523;SDS011;63074;44.696;10.358;2023-06-26T12:04:01;3.42;;;2.83;;
74523;SDS011;63074;44.696;10.358;2023-06-26T12:06:29;3.67;;;2.65;;
74523;SDS011;63074;44.696;10.358;2023-06-26T12:08:59;5.90;;;2.55;;
74523;SDS011;63074;44.696;10.358;2023-06-26T12:11:30;3.92;;;2.70;;
74523;SDS011;63074;44.696;10.358;2023-06-26T12:13:59;4.40;;;2.17;;
74523;SDS011;63074;44.696;10.358;2023-06-26T12:16:29;4.30;;;2.70;;
74523;SDS011;63074;44.696;10.358;2023-06-26T12:19:13;3.90;;;2.55;;
74523;SDS011;63074;44.696;10.358;2023-06-26T12:24:06;4.40;;;2.38;;
74523;SDS011;63074;44.696;10.358;2023-06-26T12:26:34;4.30;;;2.67;;
74523;SDS011;63074;44.696;10.358;2023-06-26T12:29:03;3.33;;;2.60;;
74523;SDS011;63074;44.696;10.358;2023-06-26T12:31:43;5.18;;;2.55;;
74523;SDS011;63074;44.696;10.358;2023-06-26T12:34:13;4.97;;;2.78;;
74523;SDS011;63074;44.696;10.358;2023-06-26T12:36:44;3.55;;;2.17;;
74523;SDS011;63074;44.696;10.358;2023-06-26T12:39:17;3.60;;;2.20;;
74523;SDS011;63074;44.696;10.358;2023-06-26T12:42:22;4.20;;;2.65;;
74523;SDS011;63074;44.696;10.358;2023-06-26T12:44:40;6.03;;;3.03;;
74523;SDS011;63074;44.696;10.358;2023-06-26T12:47:07;4.40;;;2.60;;
74523;SDS011;63074;44.696;10.358;2023-06-26T12:49:34;4.47;;;2.88;;
74523;SDS011;63074;44.696;10.358;2023-06-26T12:52:00;5.72;;;2.85;;
74523;SDS011;63074;44.696;10.358;2023-06-26T12:54:29;5.10;;;2.97;;
74523;SDS011;63074;44.696;10.358;2023-06-26T12:56:55;3.53;;;2.63;;
74523;SDS011;63074;44.696;10.358;2023-06-26T12:59:21;5.25;;;2.67;;
74523;SDS011;63074;44.696;10.358;2023-06-26T13:01:47;4.45;;;2.42;;
74523;SDS011;63074;44.696;10.358;2023-06-26T13:04:14;3.88;;;2.45;;
74523;SDS011;63074;44.696;10.358;2023-06-26T13:06:40;3.75;;;2.70;;
74523;SDS011;63074;44.696;10.358;2023-06-26T13:09:06;3.97;;;2.60;;
74523;SDS011;63074;44.696;10.358;2023-06-26T13:11:33;4.13;;;2.70;;
74523;SDS011;63074;44.696;10.358;2023-06-26T13:13:59;5.63;;;2.63;;
74523;SDS011;63074;44.696;10.358;2023-06-26T13:16:25;4.22;;;2.42;;
74523;SDS011;63074;44.696;10.358;2023-06-26T13:18:52;5.20;;;2.72;;
74523;SDS011;63074;44.696;10.358;2023-06-26T13:21:18;4.60;;;3.13;;
74523;SDS011;63074;44.696;10.358;2023-06-26T13:23:44;5.07;;;2.35;;
74523;SDS011;63074;44.696;10.358;2023-06-26T13:26:11;4.25;;;2.90;;
74523;SDS011;63074;44.696;10.358;2023-06-26T13:28:37;4.63;;;2.65;;
74523;SDS011;63074;44.696;10.358;2023-06-26T13:31:04;4.07;;;2.83;;
74523;SDS011;63074;44.696;10.358;2023-06-26T13:33:30;3.92;;;2.88;;
74523;SDS011;63074;44.696;10.358;2023-06-26T13:35:57;3.70;;;2.60;;
74523;SDS011;63074;44.696;10.358;2023-06-26T13:38:24;4.47;;;2.88;;
74523;SDS011;63074;44.696;10.358;2023-06-26T13:40:54;3.80;;;2.58;;
74523;SDS011;63074;44.696;10.358;2023-06-26T13:43:22;5.45;;;2.88;;
74523;SDS011;63074;44.696;10.358;2023-06-26T13:45:49;3.95;;;2.90;;
74523;SDS011;63074;44.696;10.358;2023-06-26T13:48:15;3.92;;;2.72;;
74523;SDS011;63074;44.696;10.358;2023-06-26T13:50:41;3.25;;;2.30;;
74523;SDS011;63074;44.696;10.358;2023-06-26T13:53:08;4.10;;;3.22;;
74523;SDS011;63074;44.696;10.358;2023-06-26T13:55:38;5.13;;;2.80;;
74523;SDS011;63074;44.696;10.358;2023-06-26T13:58:05;4.85;;;2.60;;
74523;SDS011;63074;44.696;10.358;2023-06-26T14:00:32;3.42;;;2.70;;
74523;SDS011;63074;44.696;10.358;2023-06-26T14:03:00;5.25;;;3.22;;
74523;SDS011;63074;44.696;10.358;2023-06-26T14:07:57;5.03;;;3.50;;
74523;SDS011;63074;44.696;10.358;2023-06-26T14:10:23;6.00;;;2.72;;
74523;SDS011;63074;44.696;10.358;2023-06-26T14:12:50;3.58;;;2.90;;
74523;SDS011;63074;44.696;10.358;2023-06-26T14:15:16;5.28;;;3.13;;
74523;SDS011;63074;44.696;10.358;2023-06-26T14:17:42;4.15;;;3.15;;
74523;SDS011;63074;44.696;10.358;2023-06-26T14:20:09;4.10;;;2.83;;
74523;SDS011;63074;44.696;10.358;2023-06-26T14:22:41;4.25;;;2.80;;
74523;SDS011;63074;44.696;10.358;2023-06-26T14:25:08;4.55;;;2.80;;
74523;SDS011;63074;44.696;10.358;2023-06-26T14:30:01;5.05;;;3.05;;
74523;SDS011;63074;44.696;10.358;2023-06-26T14:32:30;4.28;;;3.20;;
74523;SDS011;63074;44.696;10.358;2023-06-26T14:34:57;5.15;;;2.53;;
74523;SDS011;63074;44.696;10.358;2023-06-26T14:37:24;4.43;;;3.45;;
74523;SDS011;63074;44.696;10.358;2023-06-26T14:39:51;5.05;;;3.70;;
74523;SDS011;63074;44.696;10.358;2023-06-26T14:42:17;4.70;;;3.65;;
74523;SDS011;63074;44.696;10.358;2023-06-26T14:44:44;3.67;;;3.13;;
74523;SDS011;63074;44.696;10.358;2023-06-26T14:49:39;6.85;;;3.25;;
74523;SDS011;63074;44.696;10.358;2023-06-26T14:52:06;3.78;;;3.08;;
74523;SDS011;63074;44.696;10.358;2023-06-26T14:54:32;6.68;;;2.90;;
74523;SDS011;63074;44.696;10.358;2023-06-26T14:56:59;3.50;;;2.58;;
74523;SDS011;63074;44.696;10.358;2023-06-26T14:59:25;3.78;;;2.63;;
74523;SDS011;63074;44.696;10.358;2023-06-26T15:01:52;5.65;;;3.67;;
74523;SDS011;63074;44.696;10.358;2023-06-26T15:04:18;5.13;;;3.10;;
74523;SDS011;63074;44.696;10.358;2023-06-26T15:06:44;4.05;;;3.22;;
74523;SDS011;63074;44.696;10.358;2023-06-26T15:09:10;5.80;;;3.47;;
74523;SDS011;63074;44.696;10.358;2023-06-26T15:11:36;4.80;;;3.10;;
74523;SDS011;63074;44.696;10.358;2023-06-26T15:14:03;4.35;;;3.47;;
74523;SDS011;63074;44.696;10.358;2023-06-26T15:16:29;4.15;;;2.75;;
74523;SDS011;63074;44.696;10.358;2023-06-26T15:18:55;5.22;;;3.17;;
74523;SDS011;63074;44.696;10.358;2023-06-26T15:21:21;5.13;;;2.80;;
74523;SDS011;63074;44.696;10.358;2023-06-26T15:23:48;3.75;;;2.85;;
74523;SDS011;63074;44.696;10.358;2023-06-26T15:26:15;5.05;;;2.83;;
74523;SDS011;63074;44.696;10.358;2023-06-26T15:28:41;5.43;;;2.85;;
74523;SDS011;63074;44.696;10.358;2023-06-26T15:31:08;4.55;;;3.00;;
74523;SDS011;63074;44.696;10.358;2023-06-26T15:33:34;4.65;;;3.50;;
74523;SDS011;63074;44.696;10.358;2023-06-26T15:36:00;6.15;;;3.35;;